Meteo Giornale » Osservazioni meteo Italia » Pescara

ore: 08:50 - Osservazioni Meteo Pescara
Lat. 42° 26' N Lon. 14° 12' E Alt. 10 metri s.l.m.

sereno Europe/Rome

28 °C

Sereno

Temp. 24 Ore

20 °C

29 °C

Sud-Ovest

16.7 Km/h

Dew point 17 °C

Umidità 51 %

Visibilità  10 Km

Il sole sorge alle ore 05:24

Il sole tramonta alle ore 20:45

Data e Ora Cielo e Fenomeni T °C DP °C Um. % Pres. hPa Vis. km Vento km/h
Oggi h: 08:50 sereno Sereno 28 17 51 1011 10 SO 16.7
Oggi h: 07:50 sereno Sereno 26 17 57 1012 10 N 3.7
Oggi h: 06:50 sereno Sereno 22 18 78 1012 10 N 5.5
Oggi h: 05:50 sereno Sereno 21 17 77 1011 10 N 5.5
Oggi h: 04:50 sereno Sereno 22 17 73 1011 10 SO 9.3
Oggi h: 03:50 sereno Sereno 21 17 77 1011 10 N 5.5
Oggi h: 02:50 poco_nuvoloso Poco Nuvoloso 20 17 82 1012 10 S/SO 7.4
Oggi h: 01:50 sereno Sereno 20 18 88 1013 10 S/SO 11.1
Oggi h: 00:50 sereno Sereno 21 18 82 1013 10 N 3.7
Ieri h: 23:50 sereno Sereno 22 18 78 1013 10 N 3.7
Ieri h: 22:50 sereno Sereno 23 18 73 1013 10 O 7.4
Ieri h: 21:50 sereno Sereno 24 18 69 1013 10 SO 9.3
Ieri h: 20:50 sereno Sereno 26 19 65 1013 10 O 11.1
Ieri h: 19:50 poco_nuvoloso Poco Nuvoloso 27 19 61 1013 10 S/SE 9.3
Ieri h: 18:50 nuvoloso Nuvoloso 27 19 61 1013 10 E/NE 7.4
Ieri h: 16:50 sereno Sereno 28 19 58 1013 10 E/NE 16.7
Ieri h: 15:50 sereno Sereno 28 19 58 1014 10 E/NE 18.5
Ieri h: 12:50 sereno Sereno 29 17 48 1016 10 E/NE 16.7
Ieri h: 11:50 sereno Sereno 28 17 51 1016 10 E/NE 14.8
Ieri h: 10:50 sereno Sereno 28 18 54 1016 10 E 13
Ieri h: 09:50 sereno Sereno 27 17 54 1017 10 SO 9.3